This is the latest recevied weather packets stored in our database for station/object VA2EYZ-13. If no packets are shown the sender has not sent any weather packets the latest 10 day(s).
| Time | Temp. | Humidity | Pressure | Rain* | Wind** | Luminosity | Snow |
|---|---|---|---|---|---|---|---|
| 1777705431 | 7.78° C | 38% | 1012.1 hPa | - | - | - | - |
| 1777704832 | 8.33° C | 35% | 1012.1 hPa | - | - | - | - |
| 1777704349 | 8.33° C | 34% | 1012.1 hPa | - | - | - | - |
| 1777701831 | 8.33° C | 34% | 1012 hPa | - | - | - | - |
| 1777701191 | 8.33° C | 32% | 1012 hPa | - | - | - | - |
| 1777700332 | 8.33° C | 32% | 1011.9 hPa | - | - | - | - |
| 1777699732 | 9.44° C | 28% | 1011.9 hPa | - | - | - | - |
| 1777697741 | 8.89° C | 28% | 1011.9 hPa | - | - | - | - |
| 1777694540 | 8.89° C | 28% | 1011.8 hPa | - | - | - | - |
| 1777694109 | 8.89° C | 26% | 1011.8 hPa | - | - | - | - |
| 1777690729 | 9.44° C | 25% | 1011 hPa | - | - | - | - |
| 1777690071 | 9.44° C | 25% | 1012 hPa | - | - | - | - |
| 1777688189 | 9.44° C | 25% | 1011 hPa | - | - | - | - |
| 1777687764 | 9.44° C | 25% | 1012.1 hPa | - | - | - | - |
| 1777672939 | 11.11° C | 18% | 1011 hPa | - | - | - | - |
| 1777669339 | 11.11° C | 16% | 1010.9 hPa | - | - | - | - |
| 1777665739 | 11.67° C | 18% | 1010 hPa | - | - | - | - |
| 1777664108 | 11.11° C | 21% | 1011 hPa | - | - | - | - |
| 1777662813 | 11.11° C | 21% | 1011 hPa | - | - | - | - |
| 1777658481 | 10° C | 24% | 1011 hPa | - | - | - | - |
| 1777654938 | 10° C | 24% | 1011 hPa | - | - | - | - |
| 1777653957 | 10° C | 26% | 1012 hPa | - | - | - | - |
| 1777653379 | 10° C | 26% | 1011 hPa | - | - | - | - |
| 1777652145 | 10° C | 26% | 1012 hPa | - | - | - | - |
| 1777651338 | 10° C | 26% | 1012.4 hPa | - | - | - | - |
* Rain since midnight (hover to see other rain measurements)
** Current wind speed in m/s (hover to see current wind gust speed)